Spencer, Iowa
Current Conditions -  °F | °C
As of 8:53 PM on Sunday 21 Dec 2014 (Local Time) from KSPW Reporting Station
Haze Haze  
Wind Chill: 29°   Ceiling: 300
Heat Index: 38°   Visibility: 2.5mi
Dew Point: 37°   Wind: 17mph
Humidity: 97%   Direction: 170°S
Pressure: 29.65"   Gusts: NA
Location:  43.14°N, 95.14°W
Report Text: KSPW 220253Z AUTO 17015KT 2 1/2SM BR OVC003 03/03 A2965 RMK AO2 SLP051 T00330028 58005 TSNO
Loading
Personal Weather Stations






























Interactive Weather Map New forecast layout! Learn more

10-Day Weather Forecast

Advertisements
Track Severe Weather on mobile